KASE/ASE METAR and TAF weather

Enter ICAO airport designator
Station Type Date Time Source
KASE METAR 2018/12/10 19:53 UTC NOAA

KASE 101953Z 00000KT 10SM CLR M03/M16 A3029 RMK AO2 SLP294 T10281156


Station Type Date Time Source
KASE Decoded METAR 2018/12/10 19:53 UTC NOAA

ASPEN-PITKIN COUNTY AIRPORT, CO, United States (KASE) 39-14N 106-52W 2354M
Dec 10, 2018 - 02:53 PM EST / 2018.12.10 1953 UTC
Wind: Calm:0
Visibility: 10 mile(s):0
Sky conditions: clear
Temperature: 27.0 F (-2.8 C)
Dew Point: 3.9 F (-15.6 C)
Relative Humidity: 36%
Pressure (altimeter): 30.29 in. Hg (1025 hPa)
ob: KASE 101953Z 00000KT 10SM CLR M03/M16 A3029 RMK AO2 SLP294 T10281156
cycle: 20

Station Type Date Time Source
KASE TAF 2018/12/10 18:30 UTC NOAA

TAF KASE 101727Z 1018/1118 VRB05KT P6SM FEW140 FEW250
FM110100 20006KT P6SM FEW130 SCT220
FM111100 19006KT P6SM SCT110 BKN180


Example: see airport list